sensor_id;sensor_type;location;lat;lon;timestamp;P1;durP1;ratioP1;P2;durP2;ratioP2
50231;SDS011;36118;56.468;84.952;2023-05-10T00:03:01;13.85;;;6.20;;
50231;SDS011;36118;56.468;84.952;2023-05-10T00:08:08;14.48;;;4.88;;
50231;SDS011;36118;56.468;84.952;2023-05-10T00:13:11;8.48;;;3.95;;
50231;SDS011;36118;56.468;84.952;2023-05-10T00:18:14;11.93;;;3.78;;
50231;SDS011;36118;56.468;84.952;2023-05-10T00:23:17;12.35;;;3.90;;
50231;SDS011;36118;56.468;84.952;2023-05-10T00:28:20;10.02;;;4.07;;
50231;SDS011;36118;56.468;84.952;2023-05-10T00:33:23;8.55;;;3.88;;
50231;SDS011;36118;56.468;84.952;2023-05-10T00:38:26;7.68;;;3.47;;
50231;SDS011;36118;56.468;84.952;2023-05-10T00:43:29;7.00;;;2.78;;
50231;SDS011;36118;56.468;84.952;2023-05-10T00:48:32;6.20;;;2.67;;
50231;SDS011;36118;56.468;84.952;2023-05-10T00:53:34;7.10;;;3.03;;
50231;SDS011;36118;56.468;84.952;2023-05-10T00:58:39;7.80;;;2.90;;
50231;SDS011;36118;56.468;84.952;2023-05-10T01:03:42;9.25;;;2.67;;
50231;SDS011;36118;56.468;84.952;2023-05-10T01:08:45;6.30;;;2.72;;
50231;SDS011;36118;56.468;84.952;2023-05-10T01:13:51;6.20;;;3.47;;
50231;SDS011;36118;56.468;84.952;2023-05-10T01:18:58;3.30;;;1.60;;
50231;SDS011;36118;56.468;84.952;2023-05-10T01:34:53;6.53;;;2.55;;
50231;SDS011;36118;56.468;84.952;2023-05-10T01:40:03;6.93;;;2.20;;
50231;SDS011;36118;56.468;84.952;2023-05-10T01:50:29;5.00;;;2.22;;
50231;SDS011;36118;56.468;84.952;2023-05-10T01:55:34;6.55;;;2.45;;
50231;SDS011;36118;56.468;84.952;2023-05-10T02:00:39;5.47;;;2.10;;
50231;SDS011;36118;56.468;84.952;2023-05-10T02:05:43;3.95;;;2.30;;
50231;SDS011;36118;56.468;84.952;2023-05-10T02:10:49;4.25;;;1.38;;
50231;SDS011;36118;56.468;84.952;2023-05-10T02:15:53;7.10;;;2.08;;
50231;SDS011;36118;56.468;84.952;2023-05-10T02:20:57;12.50;;;2.00;;
50231;SDS011;36118;56.468;84.952;2023-05-10T02:26:00;4.00;;;1.67;;
50231;SDS011;36118;56.468;84.952;2023-05-10T02:31:04;4.15;;;1.55;;
50231;SDS011;36118;56.468;84.952;2023-05-10T02:36:08;5.47;;;2.20;;
50231;SDS011;36118;56.468;84.952;2023-05-10T02:41:12;3.13;;;1.90;;
50231;SDS011;36118;56.468;84.952;2023-05-10T02:46:16;4.63;;;1.98;;
50231;SDS011;36118;56.468;84.952;2023-05-10T02:51:18;7.40;;;2.22;;
50231;SDS011;36118;56.468;84.952;2023-05-10T02:56:25;5.50;;;2.10;;
50231;SDS011;36118;56.468;84.952;2023-05-10T03:01:32;3.97;;;1.70;;
50231;SDS011;36118;56.468;84.952;2023-05-10T03:06:35;6.47;;;1.90;;
50231;SDS011;36118;56.468;84.952;2023-05-10T03:16:57;4.45;;;2.35;;
50231;SDS011;36118;56.468;84.952;2023-05-10T03:22:12;3.95;;;1.98;;
50231;SDS011;36118;56.468;84.952;2023-05-10T03:27:26;4.72;;;2.22;;
50231;SDS011;36118;56.468;84.952;2023-05-10T03:32:30;5.82;;;2.40;;
50231;SDS011;36118;56.468;84.952;2023-05-10T03:37:35;6.25;;;2.83;;
50231;SDS011;36118;56.468;84.952;2023-05-10T03:42:39;4.90;;;2.33;;
50231;SDS011;36118;56.468;84.952;2023-05-10T03:47:42;7.25;;;2.72;;
50231;SDS011;36118;56.468;84.952;2023-05-10T03:52:45;12.30;;;2.88;;
50231;SDS011;36118;56.468;84.952;2023-05-10T03:57:49;4.47;;;2.15;;
50231;SDS011;36118;56.468;84.952;2023-05-10T04:02:52;4.47;;;2.38;;
50231;SDS011;36118;56.468;84.952;2023-05-10T04:07:55;5.10;;;2.38;;
50231;SDS011;36118;56.468;84.952;2023-05-10T04:12:58;8.52;;;2.45;;
50231;SDS011;36118;56.468;84.952;2023-05-10T04:18:01;4.70;;;2.30;;
50231;SDS011;36118;56.468;84.952;2023-05-10T04:23:04;7.72;;;2.13;;
50231;SDS011;36118;56.468;84.952;2023-05-10T04:28:07;5.03;;;1.90;;
50231;SDS011;36118;56.468;84.952;2023-05-10T04:33:10;6.35;;;1.90;;
50231;SDS011;36118;56.468;84.952;2023-05-10T04:38:13;10.40;;;1.67;;
50231;SDS011;36118;56.468;84.952;2023-05-10T04:43:15;5.80;;;2.10;;
50231;SDS011;36118;56.468;84.952;2023-05-10T04:48:18;7.03;;;2.40;;
50231;SDS011;36118;56.468;84.952;2023-05-10T04:53:22;4.05;;;2.00;;
50231;SDS011;36118;56.468;84.952;2023-05-10T04:58:25;3.78;;;1.92;;
50231;SDS011;36118;56.468;84.952;2023-05-10T05:03:28;3.60;;;2.00;;
50231;SDS011;36118;56.468;84.952;2023-05-10T05:08:31;5.68;;;1.90;;
50231;SDS011;36118;56.468;84.952;2023-05-10T05:13:34;3.35;;;2.17;;
50231;SDS011;36118;56.468;84.952;2023-05-10T05:18:37;7.18;;;2.03;;
50231;SDS011;36118;56.468;84.952;2023-05-10T05:23:40;6.80;;;2.55;;
50231;SDS011;36118;56.468;84.952;2023-05-10T05:28:43;11.25;;;2.58;;
50231;SDS011;36118;56.468;84.952;2023-05-10T05:33:46;4.45;;;1.55;;
50231;SDS011;36118;56.468;84.952;2023-05-10T05:38:49;6.95;;;2.15;;
50231;SDS011;36118;56.468;84.952;2023-05-10T05:43:51;8.65;;;2.78;;
50231;SDS011;36118;56.468;84.952;2023-05-10T05:48:55;6.43;;;2.20;;
50231;SDS011;36118;56.468;84.952;2023-05-10T05:53:58;6.05;;;2.25;;
50231;SDS011;36118;56.468;84.952;2023-05-10T05:59:01;10.00;;;1.83;;
50231;SDS011;36118;56.468;84.952;2023-05-10T06:04:08;4.88;;;1.90;;
50231;SDS011;36118;56.468;84.952;2023-05-10T06:09:12;5.60;;;1.90;;
50231;SDS011;36118;56.468;84.952;2023-05-10T06:14:15;2.80;;;1.40;;
50231;SDS011;36118;56.468;84.952;2023-05-10T06:19:18;5.47;;;1.80;;
50231;SDS011;36118;56.468;84.952;2023-05-10T06:24:21;5.70;;;2.38;;
50231;SDS011;36118;56.468;84.952;2023-05-10T06:29:24;5.40;;;2.40;;
50231;SDS011;36118;56.468;84.952;2023-05-10T06:34:28;1.92;;;0.52;;
50231;SDS011;36118;56.468;84.952;2023-05-10T06:39:34;3.80;;;1.85;;
50231;SDS011;36118;56.468;84.952;2023-05-10T06:44:36;4.45;;;1.63;;
50231;SDS011;36118;56.468;84.952;2023-05-10T06:49:40;2.60;;;1.30;;
50231;SDS011;36118;56.468;84.952;2023-05-10T06:54:43;2.30;;;0.73;;
50231;SDS011;36118;56.468;84.952;2023-05-10T06:59:46;4.15;;;1.48;;
50231;SDS011;36118;56.468;84.952;2023-05-10T07:04:49;1.88;;;1.10;;
50231;SDS011;36118;56.468;84.952;2023-05-10T07:09:54;9.23;;;3.03;;
50231;SDS011;36118;56.468;84.952;2023-05-10T07:14:58;4.43;;;1.60;;
50231;SDS011;36118;56.468;84.952;2023-05-10T07:20:02;4.20;;;1.50;;
50231;SDS011;36118;56.468;84.952;2023-05-10T07:25:07;2.57;;;1.13;;
50231;SDS011;36118;56.468;84.952;2023-05-10T07:30:10;5.45;;;1.35;;
50231;SDS011;36118;56.468;84.952;2023-05-10T07:35:13;7.60;;;1.80;;
50231;SDS011;36118;56.468;84.952;2023-05-10T07:40:17;5.95;;;1.45;;
50231;SDS011;36118;56.468;84.952;2023-05-10T07:45:20;2.60;;;1.35;;
50231;SDS011;36118;56.468;84.952;2023-05-10T07:50:23;2.95;;;1.40;;
50231;SDS011;36118;56.468;84.952;2023-05-10T07:55:26;4.40;;;1.50;;
50231;SDS011;36118;56.468;84.952;2023-05-10T08:00:29;3.60;;;1.27;;
50231;SDS011;36118;56.468;84.952;2023-05-10T08:05:32;7.18;;;1.50;;
50231;SDS011;36118;56.468;84.952;2023-05-10T08:10:36;2.00;;;1.10;;
50231;SDS011;36118;56.468;84.952;2023-05-10T08:15:39;7.13;;;1.90;;
50231;SDS011;36118;56.468;84.952;2023-05-10T08:20:42;3.33;;;1.40;;
50231;SDS011;36118;56.468;84.952;2023-05-10T08:25:45;4.40;;;1.48;;
50231;SDS011;36118;56.468;84.952;2023-05-10T08:30:49;4.68;;;1.20;;
50231;SDS011;36118;56.468;84.952;2023-05-10T08:35:52;3.72;;;1.45;;
50231;SDS011;36118;56.468;84.952;2023-05-10T08:40:55;5.55;;;1.60;;
50231;SDS011;36118;56.468;84.952;2023-05-10T08:46:01;3.90;;;1.30;;
50231;SDS011;36118;56.468;84.952;2023-05-10T08:51:05;4.80;;;1.50;;
50231;SDS011;36118;56.468;84.952;2023-05-10T08:56:08;4.03;;;1.40;;
50231;SDS011;36118;56.468;84.952;2023-05-10T09:01:11;2.45;;;1.23;;
50231;SDS011;36118;56.468;84.952;2023-05-10T09:06:15;4.55;;;1.50;;
50231;SDS011;36118;56.468;84.952;2023-05-10T09:11:18;5.05;;;1.50;;
50231;SDS011;36118;56.468;84.952;2023-05-10T09:16:23;6.00;;;1.60;;
50231;SDS011;36118;56.468;84.952;2023-05-10T09:21:26;3.72;;;1.33;;
50231;SDS011;36118;56.468;84.952;2023-05-10T09:26:29;3.72;;;1.65;;
50231;SDS011;36118;56.468;84.952;2023-05-10T09:31:45;7.07;;;1.65;;
50231;SDS011;36118;56.468;84.952;2023-05-10T09:36:57;6.07;;;2.20;;
50231;SDS011;36118;56.468;84.952;2023-05-10T09:42:04;4.03;;;1.48;;
50231;SDS011;36118;56.468;84.952;2023-05-10T09:47:08;4.57;;;1.90;;
50231;SDS011;36118;56.468;84.952;2023-05-10T09:52:11;4.00;;;1.73;;
50231;SDS011;36118;56.468;84.952;2023-05-10T09:57:21;2.40;;;1.30;;
50231;SDS011;36118;56.468;84.952;2023-05-10T10:02:28;3.42;;;1.83;;
50231;SDS011;36118;56.468;84.952;2023-05-10T10:07:31;2.25;;;1.30;;
50231;SDS011;36118;56.468;84.952;2023-05-10T10:12:34;3.03;;;1.40;;
50231;SDS011;36118;56.468;84.952;2023-05-10T10:17:37;3.65;;;1.75;;
50231;SDS011;36118;56.468;84.952;2023-05-10T10:22:41;2.13;;;1.25;;
50231;SDS011;36118;56.468;84.952;2023-05-10T10:27:56;5.65;;;1.60;;
50231;SDS011;36118;56.468;84.952;2023-05-10T10:39:00;4.13;;;1.50;;
50231;SDS011;36118;56.468;84.952;2023-05-10T10:49:24;4.05;;;1.73;;
50231;SDS011;36118;56.468;84.952;2023-05-10T10:54:30;4.35;;;1.90;;
50231;SDS011;36118;56.468;84.952;2023-05-10T10:59:35;3.40;;;1.60;;
50231;SDS011;36118;56.468;84.952;2023-05-10T11:04:42;3.00;;;1.60;;
50231;SDS011;36118;56.468;84.952;2023-05-10T11:09:49;5.38;;;1.98;;
50231;SDS011;36118;56.468;84.952;2023-05-10T11:14:52;6.30;;;2.00;;
50231;SDS011;36118;56.468;84.952;2023-05-10T11:20:09;3.08;;;1.83;;
50231;SDS011;36118;56.468;84.952;2023-05-10T11:25:12;6.28;;;2.35;;
50231;SDS011;36118;56.468;84.952;2023-05-10T11:30:15;5.35;;;1.88;;
50231;SDS011;36118;56.468;84.952;2023-05-10T11:35:19;9.40;;;2.17;;
50231;SDS011;36118;56.468;84.952;2023-05-10T11:40:22;10.45;;;3.90;;
50231;SDS011;36118;56.468;84.952;2023-05-10T11:45:26;13.15;;;2.17;;
50231;SDS011;36118;56.468;84.952;2023-05-10T11:50:31;4.72;;;1.95;;
50231;SDS011;36118;56.468;84.952;2023-05-10T11:55:34;5.80;;;2.10;;
50231;SDS011;36118;56.468;84.952;2023-05-10T12:00:38;5.68;;;2.15;;
50231;SDS011;36118;56.468;84.952;2023-05-10T12:05:41;4.72;;;2.08;;
50231;SDS011;36118;56.468;84.952;2023-05-10T12:10:44;4.80;;;1.90;;
50231;SDS011;36118;56.468;84.952;2023-05-10T12:15:47;5.40;;;2.20;;
50231;SDS011;36118;56.468;84.952;2023-05-10T12:20:53;6.25;;;2.00;;
50231;SDS011;36118;56.468;84.952;2023-05-10T12:26:01;9.85;;;2.55;;
50231;SDS011;36118;56.468;84.952;2023-05-10T12:31:06;4.90;;;2.10;;
50231;SDS011;36118;56.468;84.952;2023-05-10T12:36:10;4.15;;;2.17;;
50231;SDS011;36118;56.468;84.952;2023-05-10T12:41:17;11.80;;;2.63;;
50231;SDS011;36118;56.468;84.952;2023-05-10T12:46:26;5.43;;;2.22;;
50231;SDS011;36118;56.468;84.952;2023-05-10T12:51:30;7.35;;;2.28;;
50231;SDS011;36118;56.468;84.952;2023-05-10T12:56:33;8.00;;;2.22;;
50231;SDS011;36118;56.468;84.952;2023-05-10T13:01:36;5.70;;;2.10;;
50231;SDS011;36118;56.468;84.952;2023-05-10T13:06:39;4.95;;;2.33;;
50231;SDS011;36118;56.468;84.952;2023-05-10T13:11:42;6.05;;;2.30;;
50231;SDS011;36118;56.468;84.952;2023-05-10T13:16:45;9.85;;;2.50;;
50231;SDS011;36118;56.468;84.952;2023-05-10T13:21:49;7.93;;;2.90;;
50231;SDS011;36118;56.468;84.952;2023-05-10T13:26:52;5.55;;;2.40;;
50231;SDS011;36118;56.468;84.952;2023-05-10T13:31:55;6.70;;;2.17;;
50231;SDS011;36118;56.468;84.952;2023-05-10T13:36:58;5.47;;;1.95;;
50231;SDS011;36118;56.468;84.952;2023-05-10T13:42:01;5.35;;;2.30;;
50231;SDS011;36118;56.468;84.952;2023-05-10T13:47:05;11.18;;;2.47;;
50231;SDS011;36118;56.468;84.952;2023-05-10T13:52:08;10.52;;;2.35;;
50231;SDS011;36118;56.468;84.952;2023-05-10T13:57:12;14.07;;;2.65;;
50231;SDS011;36118;56.468;84.952;2023-05-10T14:02:16;7.93;;;2.40;;
50231;SDS011;36118;56.468;84.952;2023-05-10T14:07:19;7.75;;;2.25;;
50231;SDS011;36118;56.468;84.952;2023-05-10T14:12:23;11.70;;;3.38;;
50231;SDS011;36118;56.468;84.952;2023-05-10T14:17:26;11.63;;;3.17;;
50231;SDS011;36118;56.468;84.952;2023-05-10T14:22:29;8.88;;;4.00;;
50231;SDS011;36118;56.468;84.952;2023-05-10T14:27:32;13.07;;;4.30;;
50231;SDS011;36118;56.468;84.952;2023-05-10T14:32:35;9.55;;;3.80;;
50231;SDS011;36118;56.468;84.952;2023-05-10T14:37:39;15.68;;;3.92;;
50231;SDS011;36118;56.468;84.952;2023-05-10T14:42:42;21.70;;;3.75;;
50231;SDS011;36118;56.468;84.952;2023-05-10T14:47:45;19.08;;;4.50;;
50231;SDS011;36118;56.468;84.952;2023-05-10T14:58:38;22.50;;;4.43;;
50231;SDS011;36118;56.468;84.952;2023-05-10T15:03:41;35.28;;;4.10;;
50231;SDS011;36118;56.468;84.952;2023-05-10T15:08:44;24.38;;;4.93;;
50231;SDS011;36118;56.468;84.952;2023-05-10T15:13:48;29.02;;;5.05;;
50231;SDS011;36118;56.468;84.952;2023-05-10T15:18:51;32.78;;;4.85;;
50231;SDS011;36118;56.468;84.952;2023-05-10T15:23:54;30.08;;;5.30;;
50231;SDS011;36118;56.468;84.952;2023-05-10T15:28:57;31.33;;;5.72;;
50231;SDS011;36118;56.468;84.952;2023-05-10T15:34:00;28.67;;;5.72;;
50231;SDS011;36118;56.468;84.952;2023-05-10T15:39:03;30.95;;;6.07;;
50231;SDS011;36118;56.468;84.952;2023-05-10T15:44:06;34.58;;;7.30;;
50231;SDS011;36118;56.468;84.952;2023-05-10T15:49:09;34.63;;;7.45;;
50231;SDS011;36118;56.468;84.952;2023-05-10T15:54:12;51.63;;;7.70;;
50231;SDS011;36118;56.468;84.952;2023-05-10T15:59:15;42.25;;;7.85;;
50231;SDS011;36118;56.468;84.952;2023-05-10T16:04:18;58.63;;;8.80;;
50231;SDS011;36118;56.468;84.952;2023-05-10T16:09:20;59.30;;;8.55;;
50231;SDS011;36118;56.468;84.952;2023-05-10T16:14:23;54.65;;;7.80;;
50231;SDS011;36118;56.468;84.952;2023-05-10T16:19:26;44.40;;;7.90;;
50231;SDS011;36118;56.468;84.952;2023-05-10T16:24:31;79.35;;;11.68;;
50231;SDS011;36118;56.468;84.952;2023-05-10T16:29:34;60.90;;;11.65;;
50231;SDS011;36118;56.468;84.952;2023-05-10T16:34:36;63.88;;;11.65;;
50231;SDS011;36118;56.468;84.952;2023-05-10T16:39:39;57.03;;;10.73;;
50231;SDS011;36118;56.468;84.952;2023-05-10T16:44:42;51.67;;;11.75;;
50231;SDS011;36118;56.468;84.952;2023-05-10T16:49:45;50.13;;;11.77;;
50231;SDS011;36118;56.468;84.952;2023-05-10T16:54:48;47.17;;;11.77;;
50231;SDS011;36118;56.468;84.952;2023-05-10T16:59:52;47.50;;;10.82;;
50231;SDS011;36118;56.468;84.952;2023-05-10T17:04:55;44.90;;;11.55;;
50231;SDS011;36118;56.468;84.952;2023-05-10T17:09:58;47.90;;;11.70;;
50231;SDS011;36118;56.468;84.952;2023-05-10T17:15:01;57.85;;;13.18;;
50231;SDS011;36118;56.468;84.952;2023-05-10T17:20:06;53.23;;;12.33;;
50231;SDS011;36118;56.468;84.952;2023-05-10T17:25:09;38.60;;;11.35;;
50231;SDS011;36118;56.468;84.952;2023-05-10T17:30:13;43.88;;;12.65;;
50231;SDS011;36118;56.468;84.952;2023-05-10T17:35:16;24.67;;;10.60;;
50231;SDS011;36118;56.468;84.952;2023-05-10T17:40:20;25.13;;;10.20;;
50231;SDS011;36118;56.468;84.952;2023-05-10T17:45:22;26.10;;;10.70;;
50231;SDS011;36118;56.468;84.952;2023-05-10T17:50:25;28.98;;;9.70;;
50231;SDS011;36118;56.468;84.952;2023-05-10T17:55:28;36.85;;;11.77;;
50231;SDS011;36118;56.468;84.952;2023-05-10T18:00:32;28.92;;;11.35;;
50231;SDS011;36118;56.468;84.952;2023-05-10T18:05:35;31.65;;;11.57;;
50231;SDS011;36118;56.468;84.952;2023-05-10T18:10:39;26.38;;;10.73;;
50231;SDS011;36118;56.468;84.952;2023-05-10T18:15:42;23.60;;;8.95;;
50231;SDS011;36118;56.468;84.952;2023-05-10T18:20:45;18.80;;;7.65;;
50231;SDS011;36118;56.468;84.952;2023-05-10T18:25:48;17.50;;;7.70;;
50231;SDS011;36118;56.468;84.952;2023-05-10T18:30:52;29.70;;;9.65;;
50231;SDS011;36118;56.468;84.952;2023-05-10T18:35:55;32.58;;;10.65;;
50231;SDS011;36118;56.468;84.952;2023-05-10T18:40:58;29.45;;;10.27;;
50231;SDS011;36118;56.468;84.952;2023-05-10T18:46:01;30.42;;;10.38;;
50231;SDS011;36118;56.468;84.952;2023-05-10T18:51:04;38.35;;;11.30;;
50231;SDS011;36118;56.468;84.952;2023-05-10T18:56:07;34.00;;;11.70;;
50231;SDS011;36118;56.468;84.952;2023-05-10T19:01:10;34.25;;;12.43;;
50231;SDS011;36118;56.468;84.952;2023-05-10T19:06:12;35.88;;;13.00;;
50231;SDS011;36118;56.468;84.952;2023-05-10T19:11:15;44.90;;;13.82;;
50231;SDS011;36118;56.468;84.952;2023-05-10T19:16:18;37.17;;;14.00;;
50231;SDS011;36118;56.468;84.952;2023-05-10T19:21:24;36.20;;;13.63;;
50231;SDS011;36118;56.468;84.952;2023-05-10T19:26:27;39.15;;;13.20;;
50231;SDS011;36118;56.468;84.952;2023-05-10T19:31:30;18.73;;;8.27;;
50231;SDS011;36118;56.468;84.952;2023-05-10T19:36:34;11.63;;;4.63;;
50231;SDS011;36118;56.468;84.952;2023-05-10T19:41:37;11.05;;;5.25;;
50231;SDS011;36118;56.468;84.952;2023-05-10T19:46:40;12.27;;;4.82;;
50231;SDS011;36118;56.468;84.952;2023-05-10T19:51:43;11.73;;;4.97;;
50231;SDS011;36118;56.468;84.952;2023-05-10T19:56:47;15.90;;;5.75;;
50231;SDS011;36118;56.468;84.952;2023-05-10T20:01:50;23.77;;;5.63;;
50231;SDS011;36118;56.468;84.952;2023-05-10T20:06:52;17.13;;;5.63;;
50231;SDS011;36118;56.468;84.952;2023-05-10T20:11:55;14.50;;;5.40;;
50231;SDS011;36118;56.468;84.952;2023-05-10T20:16:58;14.93;;;6.07;;
50231;SDS011;36118;56.468;84.952;2023-05-10T20:22:01;13.13;;;5.75;;
50231;SDS011;36118;56.468;84.952;2023-05-10T20:27:06;21.50;;;7.82;;
50231;SDS011;36118;56.468;84.952;2023-05-10T20:32:09;18.08;;;6.05;;
50231;SDS011;36118;56.468;84.952;2023-05-10T20:37:12;16.55;;;6.57;;
50231;SDS011;36118;56.468;84.952;2023-05-10T20:42:15;17.65;;;6.63;;
50231;SDS011;36118;56.468;84.952;2023-05-10T20:47:18;15.82;;;6.28;;
50231;SDS011;36118;56.468;84.952;2023-05-10T20:52:21;15.63;;;6.30;;
50231;SDS011;36118;56.468;84.952;2023-05-10T20:57:25;12.23;;;6.60;;
50231;SDS011;36118;56.468;84.952;2023-05-10T21:02:28;13.50;;;6.32;;
50231;SDS011;36118;56.468;84.952;2023-05-10T21:07:31;15.82;;;5.55;;
50231;SDS011;36118;56.468;84.952;2023-05-10T21:12:34;13.90;;;5.80;;
50231;SDS011;36118;56.468;84.952;2023-05-10T21:17:37;17.00;;;7.13;;
50231;SDS011;36118;56.468;84.952;2023-05-10T21:22:40;11.20;;;5.72;;
50231;SDS011;36118;56.468;84.952;2023-05-10T21:27:43;16.05;;;5.82;;
50231;SDS011;36118;56.468;84.952;2023-05-10T21:32:46;20.60;;;6.22;;
50231;SDS011;36118;56.468;84.952;2023-05-10T21:37:48;13.77;;;5.03;;
50231;SDS011;36118;56.468;84.952;2023-05-10T21:42:51;14.52;;;5.68;;
50231;SDS011;36118;56.468;84.952;2023-05-10T21:47:54;16.17;;;6.50;;
50231;SDS011;36118;56.468;84.952;2023-05-10T21:52:58;15.80;;;5.55;;
50231;SDS011;36118;56.468;84.952;2023-05-10T21:58:00;16.17;;;5.55;;
50231;SDS011;36118;56.468;84.952;2023-05-10T22:03:03;14.57;;;5.80;;
50231;SDS011;36118;56.468;84.952;2023-05-10T22:08:07;13.18;;;5.32;;
50231;SDS011;36118;56.468;84.952;2023-05-10T22:13:10;9.32;;;5.03;;
50231;SDS011;36118;56.468;84.952;2023-05-10T22:18:13;12.45;;;5.13;;
50231;SDS011;36118;56.468;84.952;2023-05-10T22:23:16;18.92;;;5.43;;
50231;SDS011;36118;56.468;84.952;2023-05-10T22:28:18;18.85;;;5.68;;
50231;SDS011;36118;56.468;84.952;2023-05-10T22:33:21;14.23;;;5.32;;
50231;SDS011;36118;56.468;84.952;2023-05-10T22:38:24;19.52;;;4.95;;
50231;SDS011;36118;56.468;84.952;2023-05-10T22:43:27;17.00;;;5.15;;
50231;SDS011;36118;56.468;84.952;2023-05-10T22:48:31;24.73;;;4.93;;
50231;SDS011;36118;56.468;84.952;2023-05-10T22:53:35;14.15;;;4.47;;
50231;SDS011;36118;56.468;84.952;2023-05-10T22:58:39;16.60;;;4.50;;
50231;SDS011;36118;56.468;84.952;2023-05-10T23:03:41;11.75;;;4.25;;
50231;SDS011;36118;56.468;84.952;2023-05-10T23:08:44;11.70;;;4.22;;
50231;SDS011;36118;56.468;84.952;2023-05-10T23:13:47;12.38;;;4.28;;
50231;SDS011;36118;56.468;84.952;2023-05-10T23:18:51;14.73;;;4.22;;
50231;SDS011;36118;56.468;84.952;2023-05-10T23:23:54;18.73;;;4.40;;
50231;SDS011;36118;56.468;84.952;2023-05-10T23:28:58;19.48;;;4.75;;
50231;SDS011;36118;56.468;84.952;2023-05-10T23:34:01;17.67;;;5.30;;
50231;SDS011;36118;56.468;84.952;2023-05-10T23:39:04;19.80;;;4.60;;
50231;SDS011;36118;56.468;84.952;2023-05-10T23:44:08;19.17;;;4.57;;
50231;SDS011;36118;56.468;84.952;2023-05-10T23:49:10;32.42;;;5.50;;
50231;SDS011;36118;56.468;84.952;2023-05-10T23:54:13;18.77;;;4.97;;
50231;SDS011;36118;56.468;84.952;2023-05-10T23:59:16;23.95;;;6.55;;
